Time,TemperatureF,DewpointF,PressureIn,WindDirection,WindDirectionDegrees,WindSpeedMPH,WindSpeedGustMPH,Humidity,HourlyPrecipIn,Conditions,Clouds,dailyrainin,SoftwareType,DateUTC
2013-03-08 07:40:00,22.4,20.7,30.40,NW,310,3.0,4.0,93,0.00,,,0.00,Wunderground v.1.15,2013-03-08 12:40:00,
2013-03-08 07:45:00,22.5,20.8,30.40,NW,321,4.0,4.0,93,0.00,,,0.00,Wunderground v.1.15,2013-03-08 12:45:00,
2013-03-08 07:50:00,22.5,20.8,30.40,NW,321,5.0,5.0,93,0.00,,,0.00,Wunderground v.1.15,2013-03-08 12:50:00,
2013-03-08 07:55:00,22.5,20.8,30.39,NW,317,5.0,5.0,93,0.00,,,0.00,Wunderground v.1.15,2013-03-08 12:55:00,
2013-03-08 08:00:00,22.5,20.8,30.40,NW,323,5.0,6.0,93,0.00,,,0.00,Wunderground v.1.15,2013-03-08 13:00:00,
2013-03-08 08:05:00,22.6,20.9,30.39,North,355,5.0,11.0,93,0.00,,,0.00,Wunderground v.1.15,2013-03-08 13:05:00,
2013-03-08 08:10:00,22.5,20.8,30.40,NW,310,5.0,5.0,93,0.00,,,0.00,Wunderground v.1.15,2013-03-08 13:10:00,
2013-03-08 08:15:00,22.6,20.9,30.40,North,5,5.0,11.0,93,0.00,,,0.00,Wunderground v.1.15,2013-03-08 13:15:00,
2013-03-08 08:20:00,22.5,20.8,30.41,NW,325,4.0,11.0,93,0.00,,,0.00,Wunderground v.1.15,2013-03-08 13:20:00,
2013-03-08 08:25:00,22.5,20.8,30.42,NW,325,5.0,11.0,93,0.00,,,0.00,Wunderground v.1.15,2013-03-08 13:25:00,
2013-03-08 08:35:00,22.7,21.0,30.42,NNE,14,4.0,11.0,93,0.00,,,0.00,Wunderground v.1.15,2013-03-08 13:35:00,
2013-03-08 08:40:00,23.0,21.3,30.41,NNW,328,4.0,11.0,93,0.00,,,0.00,Wunderground v.1.15,2013-03-08 13:40:00,
2013-03-08 08:45:00,23.1,21.4,30.41,NW,320,5.0,11.0,93,0.00,,,0.00,Wunderground v.1.15,2013-03-08 13:45:00,
2013-03-08 08:50:00,23.2,21.5,30.41,NW,325,5.0,5.0,93,0.00,,,0.00,Wunderground v.1.15,2013-03-08 13:50:00,
2013-03-08 08:55:00,23.2,21.2,30.41,NW,318,5.0,11.0,92,0.00,,,0.00,Wunderground v.1.15,2013-03-08 13:55:00,
2013-03-08 09:00:00,23.2,21.2,30.42,NW,319,4.0,11.0,92,0.00,,,0.00,Wunderground v.1.15,2013-03-08 14:00:00,
2013-03-08 09:05:00,23.2,21.2,30.42,NNW,329,4.0,11.0,92,0.00,,,0.00,Wunderground v.1.15,2013-03-08 14:05:00,
2013-03-08 09:15:00,23.3,21.1,30.42,North,360,4.0,11.0,91,0.00,,,0.00,Wunderground v.1.15,2013-03-08 14:15:00,
2013-03-08 09:20:00,23.4,21.2,30.42,NNE,17,3.0,11.0,91,0.00,,,0.00,Wunderground v.1.15,2013-03-08 14:20:00,
2013-03-08 09:25:00,23.4,21.2,30.42,NW,311,3.0,11.0,91,0.00,,,0.00,Wunderground v.1.15,2013-03-08 14:25:00,
2013-03-08 09:30:00,23.4,21.4,30.43,NNW,339,3.0,11.0,92,0.00,,,0.00,Wunderground v.1.15,2013-03-08 14:30:00,
2013-03-08 09:35:00,23.4,21.2,30.43,North,5,3.0,11.0,91,0.00,,,0.00,Wunderground v.1.15,2013-03-08 14:35:00,
2013-03-08 09:40:00,23.5,21.3,30.43,WNW,293,3.0,11.0,91,0.00,,,0.00,Wunderground v.1.15,2013-03-08 14:40:00,
2013-03-08 09:45:00,23.5,21.3,30.44,NNW,329,4.0,11.0,91,0.00,,,0.00,Wunderground v.1.15,2013-03-08 14:45:00,
2013-03-08 09:55:00,23.6,21.4,30.44,NW,323,4.0,11.0,91,0.00,,,0.00,Wunderground v.1.15,2013-03-08 14:55:00,
2013-03-08 10:00:00,23.7,21.5,30.44,NNW,331,3.0,3.0,91,0.00,,,0.00,Wunderground v.1.15,2013-03-08 15:00:00,
2013-03-08 10:05:00,23.7,21.5,30.44,North,10,3.0,11.0,91,0.00,,,0.00,Wunderground v.1.15,2013-03-08 15:05:00,
2013-03-08 10:10:00,23.6,21.4,30.45,NNW,342,4.0,11.0,91,0.00,,,0.00,Wunderground v.1.15,2013-03-08 15:10:00,
2013-03-08 10:15:00,23.6,21.4,30.45,NW,311,4.0,11.0,91,0.00,,,0.00,Wunderground v.1.15,2013-03-08 15:15:00,
2013-03-08 10:20:00,23.6,21.4,30.44,NW,319,4.0,4.0,91,0.00,,,0.00,Wunderground v.1.15,2013-03-08 15:20:00,
2013-03-08 10:30:00,23.7,21.5,30.45,NNW,341,3.0,11.0,91,0.00,,,0.00,Wunderground v.1.15,2013-03-08 15:30:00,
2013-03-08 10:35:00,23.8,21.6,30.45,NNE,19,4.0,11.0,91,0.00,,,0.00,Wunderground v.1.15,2013-03-08 15:35:00,
2013-03-08 10:40:00,23.9,21.7,30.45,NW,317,4.0,4.0,91,0.00,,,0.00,Wunderground v.1.15,2013-03-08 15:40:00,
2013-03-08 10:45:00,24.1,21.9,30.45,NNW,336,3.0,11.0,91,0.00,,,0.00,Wunderground v.1.15,2013-03-08 15:45:00,
2013-03-08 10:50:00,24.1,21.9,30.45,NNW,328,3.0,11.0,91,0.00,,,0.00,Wunderground v.1.15,2013-03-08 15:50:00,
2013-03-08 10:55:00,24.3,22.1,30.45,NNW,327,3.0,11.0,91,0.00,,,0.00,Wunderground v.1.15,2013-03-08 15:55:00,
2013-03-08 11:05:00,24.3,22.1,30.44,North,9,3.0,11.0,91,0.00,,,0.00,Wunderground v.1.15,2013-03-08 16:05:00,
2013-03-08 11:15:00,24.4,22.2,30.45,NNW,336,3.0,11.0,91,0.00,,,0.00,Wunderground v.1.15,2013-03-08 16:15:00,
2013-03-08 11:20:00,24.5,22.2,30.45,NNW,333,3.0,11.0,91,0.00,,,0.00,Wunderground v.1.15,2013-03-08 16:20:00,
2013-03-08 11:25:00,24.5,22.2,30.45,NW,310,3.0,11.0,91,0.00,,,0.00,Wunderground v.1.15,2013-03-08 16:25:00,
2013-03-08 11:30:00,24.6,22.3,30.45,NW,319,4.0,11.0,91,0.00,,,0.00,Wunderground v.1.15,2013-03-08 16:30:00,
2013-03-08 11:40:00,24.7,22.4,30.45,NW,322,3.0,3.0,91,0.00,,,0.00,Wunderground v.1.15,2013-03-08 16:40:00,
2013-03-08 11:50:00,24.9,22.4,30.45,NW,323,4.0,4.0,90,0.00,,,0.00,Wunderground v.1.15,2013-03-08 16:50:00,
2013-03-08 12:00:00,25.3,22.8,30.45,NW,321,3.0,11.0,90,0.00,,,0.00,Wunderground v.1.15,2013-03-08 17:00:00,
2013-03-08 12:05:00,25.3,22.8,30.44,NW,313,4.0,11.0,90,0.00,,,0.00,Wunderground v.1.15,2013-03-08 17:05:00,
2013-03-08 12:10:00,25.2,22.7,30.44,NNE,16,5.0,11.0,90,0.00,,,0.00,Wunderground v.1.15,2013-03-08 17:10:00,
2013-03-08 12:20:00,25.4,22.9,30.44,WNW,300,4.0,11.0,90,0.00,,,0.00,Wunderground v.1.15,2013-03-08 17:20:00,
2013-03-08 12:25:00,25.5,23.0,30.44,NW,304,4.0,11.0,90,0.00,,,0.00,Wunderground v.1.15,2013-03-08 17:25:00,
2013-03-08 12:30:00,25.6,22.8,30.43,NNE,32,4.0,11.0,89,0.00,,,0.00,Wunderground v.1.15,2013-03-08 17:30:00,
2013-03-08 12:35:00,25.6,22.8,30.43,NW,323,4.0,11.0,89,0.00,,,0.00,Wunderground v.1.15,2013-03-08 17:35:00,
2013-03-08 12:40:00,25.7,22.9,30.43,NW,323,5.0,5.0,89,0.00,,,0.00,Wunderground v.1.15,2013-03-08 17:40:00,
2013-03-08 12:45:00,25.8,23.0,30.43,NW,315,4.0,11.0,89,0.00,,,0.00,Wunderground v.1.15,2013-03-08 17:45:00,
2013-03-08 12:55:00,25.8,23.0,30.43,NW,321,4.0,11.0,89,0.00,,,0.00,Wunderground v.1.15,2013-03-08 17:55:00,
2013-03-08 13:00:00,26.0,23.2,30.43,NNW,333,4.0,11.0,89,0.00,,,0.00,Wunderground v.1.15,2013-03-08 18:00:00,
2013-03-08 13:05:00,26.1,23.3,30.42,NNW,329,4.0,11.0,89,0.00,,,0.00,Wunderground v.1.15,2013-03-08 18:05:00,
2013-03-08 13:10:00,26.3,23.5,30.42,NW,323,4.0,11.0,89,0.00,,,0.00,Wunderground v.1.15,2013-03-08 18:10:00,
2013-03-08 13:15:00,26.2,23.4,30.43,NW,311,3.0,11.0,89,0.00,,,0.00,Wunderground v.1.15,2013-03-08 18:15:00,
2013-03-08 13:25:00,26.3,23.5,30.43,NNW,331,4.0,11.0,89,0.00,,,0.00,Wunderground v.1.15,2013-03-08 18:25:00,
2013-03-08 13:30:00,26.2,23.4,30.43,NW,316,4.0,11.0,89,0.00,,,0.00,Wunderground v.1.15,2013-03-08 18:30:00,
2013-03-08 13:35:00,26.2,23.7,30.43,NW,315,4.0,11.0,90,0.00,,,0.00,Wunderground v.1.15,2013-03-08 18:35:00,
2013-03-08 13:45:00,26.4,23.9,30.43,NW,324,3.0,11.0,90,0.00,,,0.00,Wunderground v.1.15,2013-03-08 18:45:00,
2013-03-08 13:50:00,26.4,23.6,30.43,NNE,17,3.0,11.0,89,0.00,,,0.00,Wunderground v.1.15,2013-03-08 18:50:00,
2013-03-08 14:00:00,26.5,23.7,30.43,NW,313,4.0,11.0,89,0.00,,,0.00,Wunderground v.1.15,2013-03-08 19:00:00,
2013-03-08 14:05:00,26.5,23.7,30.42,NW,313,5.0,11.0,89,0.00,,,0.00,Wunderground v.1.15,2013-03-08 19:05:00,
2013-03-08 14:10:00,26.4,23.6,30.42,NW,313,6.0,6.0,89,0.00,,,0.00,Wunderground v.1.15,2013-03-08 19:10:00,
2013-03-08 14:15:00,26.6,23.8,30.42,WNW,290,6.0,11.0,89,0.00,,,0.00,Wunderground v.1.15,2013-03-08 19:15:00,
2013-03-08 14:20:00,26.9,24.1,30.42,NW,321,4.0,11.0,89,0.00,,,0.00,Wunderground v.1.15,2013-03-08 19:20:00,
2013-03-08 14:30:00,27.1,24.0,30.42,NW,309,6.0,11.0,88,0.00,,,0.00,Wunderground v.1.15,2013-03-08 19:30:00,
2013-03-08 14:35:00,27.1,24.0,30.42,NW,317,6.0,11.0,88,0.00,,,0.00,Wunderground v.1.15,2013-03-08 19:35:00,
2013-03-08 14:45:00,26.9,24.1,30.41,NW,317,8.0,11.0,89,0.00,,,0.00,Wunderground v.1.15,2013-03-08 19:45:00,
2013-03-08 14:50:00,27.1,24.3,30.41,NW,321,7.0,7.0,89,0.00,,,0.00,Wunderground v.1.15,2013-03-08 19:50:00,
2013-03-08 14:55:00,27.4,24.6,30.41,NW,325,5.0,11.0,89,0.00,,,0.00,Wunderground v.1.15,2013-03-08 19:55:00,
2013-03-08 15:05:00,27.4,24.3,30.42,WSW,240,5.0,11.0,88,0.00,,,0.00,Wunderground v.1.15,2013-03-08 20:05:00,
2013-03-08 15:10:00,27.2,24.4,30.42,NNW,341,6.0,6.0,89,0.00,,,0.00,Wunderground v.1.15,2013-03-08 20:10:00,
2013-03-08 15:15:00,27.0,24.2,30.43,NW,319,5.0,11.0,89,0.00,,,0.00,Wunderground v.1.15,2013-03-08 20:15:00,
2013-03-08 15:25:00,26.9,24.4,30.43,NW,326,4.0,5.0,90,0.00,,,0.00,Wunderground v.1.15,2013-03-08 20:25:00,
2013-03-08 15:30:00,26.9,24.4,30.43,NW,317,4.0,4.0,90,0.00,,,0.00,Wunderground v.1.15,2013-03-08 20:30:00,
2013-03-08 15:35:00,27.1,24.6,30.43,NW,317,4.0,11.0,90,0.00,,,0.00,Wunderground v.1.15,2013-03-08 20:35:00,
2013-03-08 15:40:00,27.1,24.3,30.44,NNE,22,3.0,11.0,89,0.00,,,0.00,Wunderground v.1.15,2013-03-08 20:40:00,
2013-03-08 15:50:00,27.0,24.5,30.44,North,355,4.0,4.0,90,0.00,,,0.00,Wunderground v.1.15,2013-03-08 20:50:00,
2013-03-08 15:55:00,27.1,24.6,30.45,North,5,3.0,11.0,90,0.00,,,0.00,Wunderground v.1.15,2013-03-08 20:55:00,
2013-03-08 16:00:00,27.0,24.2,30.45,NW,322,3.0,11.0,89,0.00,,,0.00,Wunderground v.1.15,2013-03-08 21:00:00,
2013-03-08 16:05:00,27.0,24.2,30.46,NW,324,4.0,11.0,89,0.00,,,0.00,Wunderground v.1.15,2013-03-08 21:05:00,
2013-03-08 16:10:00,27.0,24.2,30.46,NW,324,3.0,11.0,89,0.00,,,0.00,Wunderground v.1.15,2013-03-08 21:10:00,
2013-03-08 16:15:00,26.9,24.1,30.46,NW,321,4.0,11.0,89,0.00,,,0.00,Wunderground v.1.15,2013-03-08 21:15:00,
2013-03-08 16:25:00,26.9,24.1,30.46,NW,313,4.0,6.0,89,0.00,,,0.00,Wunderground v.1.15,2013-03-08 21:25:00,
2013-03-08 16:30:00,26.8,24.0,30.45,NW,324,5.0,11.0,89,0.00,,,0.00,Wunderground v.1.15,2013-03-08 21:30:00,
2013-03-08 16:40:00,26.7,23.9,30.46,NNE,22,6.0,6.0,89,0.00,,,0.00,Wunderground v.1.15,2013-03-08 21:40:00,
2013-03-08 16:45:00,26.7,23.9,30.47,WNW,284,6.0,11.0,89,0.00,,,0.00,Wunderground v.1.15,2013-03-08 21:45:00,
2013-03-08 16:50:00,26.6,23.8,30.47,North,355,5.0,11.0,89,0.00,,,0.00,Wunderground v.1.15,2013-03-08 21:50:00,
2013-03-08 16:55:00,26.6,23.8,30.47,West,268,5.0,11.0,89,0.00,,,0.00,Wunderground v.1.15,2013-03-08 21:55:00,
2013-03-08 17:00:00,26.6,23.8,30.47,WNW,297,4.0,4.0,89,0.00,,,0.00,Wunderground v.1.15,2013-03-08 22:00:00,
2013-03-08 17:05:00,26.6,23.8,30.48,NW,319,4.0,11.0,89,0.00,,,0.00,Wunderground v.1.15,2013-03-08 22:05:00,
2013-03-08 17:10:00,26.6,23.8,30.47,NW,323,4.0,11.0,89,0.00,,,0.00,Wunderground v.1.15,2013-03-08 22:10:00,
2013-03-08 17:20:00,26.6,23.8,30.48,NW,320,5.0,5.0,89,0.00,,,0.00,Wunderground v.1.15,2013-03-08 22:20:00,
2013-03-08 17:25:00,26.6,23.8,30.48,NW,319,4.0,11.0,89,0.00,,,0.00,Wunderground v.1.15,2013-03-08 22:25:00,
2013-03-08 17:30:00,26.6,23.8,30.49,WNW,298,4.0,11.0,89,0.00,,,0.00,Wunderground v.1.15,2013-03-08 22:30:00,
2013-03-08 17:35:00,26.5,23.7,30.48,NW,319,4.0,11.0,89,0.00,,,0.00,Wunderground v.1.15,2013-03-08 22:35:00,
2013-03-08 17:40:00,26.4,23.6,30.48,NW,325,6.0,6.0,89,0.00,,,0.00,Wunderground v.1.15,2013-03-08 22:40:00,
2013-03-08 17:50:00,26.0,23.2,30.47,NW,321,6.0,11.0,89,0.00,,,0.00,Wunderground v.1.15,2013-03-08 22:50:00,
2013-03-08 17:55:00,26.0,23.5,30.48,NW,322,6.0,11.0,90,0.00,,,0.00,Wunderground v.1.15,2013-03-08 22:55:00,
2013-03-08 18:00:00,25.9,23.4,30.48,West,272,4.0,4.0,90,0.00,,,0.00,Wunderground v.1.15,2013-03-08 23:00:00,
2013-03-08 18:05:00,25.9,23.4,30.48,WNW,303,4.0,11.0,90,0.00,,,0.00,Wunderground v.1.15,2013-03-08 23:05:00,
2013-03-08 18:10:00,25.8,23.3,30.48,NW,324,4.0,4.0,90,0.00,,,0.00,Wunderground v.1.15,2013-03-08 23:10:00,
2013-03-08 18:20:00,25.7,23.2,30.49,NW,317,3.0,3.0,90,0.00,,,0.00,Wunderground v.1.15,2013-03-08 23:20:00,
2013-03-08 18:25:00,25.7,23.4,30.49,NNW,327,3.0,11.0,91,0.00,,,0.00,Wunderground v.1.15,2013-03-08 23:25:00,
2013-03-08 18:30:00,25.7,23.4,30.49,NW,316,2.0,2.0,91,0.00,,,0.00,Wunderground v.1.15,2013-03-08 23:30:00,
2013-03-08 18:35:00,25.7,23.4,30.50,NNW,340,2.0,11.0,91,0.00,,,0.00,Wunderground v.1.15,2013-03-08 23:35:00,
2013-03-08 18:40:00,25.8,23.8,30.50,NW,310,3.0,3.0,92,0.00,,,0.00,Wunderground v.1.15,2013-03-08 23:40:00,
2013-03-08 18:45:00,25.9,23.9,30.50,NW,321,3.0,11.0,92,0.00,,,0.00,Wunderground v.1.15,2013-03-08 23:45:00,
2013-03-08 18:55:00,25.9,23.6,30.50,West,275,6.0,8.0,91,0.00,,,0.00,Wunderground v.1.15,2013-03-08 23:55:00,
2013-03-08 19:00:00,25.9,23.9,30.50,NW,323,5.0,5.0,92,0.00,,,0.00,Wunderground v.1.15,2013-03-09 00:00:00,
2013-03-08 19:05:00,25.9,23.6,30.50,NW,304,4.0,11.0,91,0.00,,,0.00,Wunderground v.1.15,2013-03-09 00:05:00,
2013-03-08 19:10:00,25.8,23.5,30.50,NW,317,3.0,11.0,91,0.00,,,0.00,Wunderground v.1.15,2013-03-09 00:10:00,
2013-03-08 19:15:00,25.8,23.5,30.50,NW,308,2.0,11.0,91,0.00,,,0.00,Wunderground v.1.15,2013-03-09 00:15:00,
2013-03-08 19:25:00,25.7,23.4,30.51,NW,310,2.0,11.0,91,0.00,,,0.00,Wunderground v.1.15,2013-03-09 00:25:00,
2013-03-08 19:30:00,25.7,23.4,30.51,NW,313,2.0,2.0,91,0.00,,,0.00,Wunderground v.1.15,2013-03-09 00:30:00,
2013-03-08 19:35:00,25.7,23.4,30.51,NW,317,2.0,11.0,91,0.00,,,0.00,Wunderground v.1.15,2013-03-09 00:35:00,
2013-03-08 19:40:00,25.6,23.3,30.51,NW,318,3.0,11.0,91,0.00,,,0.00,Wunderground v.1.15,2013-03-09 00:40:00,
2013-03-08 19:45:00,25.6,23.3,30.51,WNW,286,3.0,11.0,91,0.00,,,0.00,Wunderground v.1.15,2013-03-09 00:45:00,
2013-03-08 19:50:00,25.4,23.1,30.51,NW,309,2.0,11.0,91,0.00,,,0.00,Wunderground v.1.15,2013-03-09 00:50:00,
2013-03-08 19:55:00,25.4,23.4,30.52,North,5,2.0,11.0,92,0.00,,,0.00,Wunderground v.1.15,2013-03-09 00:55:00,
2013-03-08 20:05:00,25.4,23.4,30.52,NW,313,2.0,11.0,92,0.00,,,0.00,Wunderground v.1.15,2013-03-09 01:05:00,
2013-03-08 20:10:00,25.5,23.5,30.52,NW,316,3.0,11.0,92,0.00,,,0.00,Wunderground v.1.15,2013-03-09 01:10:00,
2013-03-08 20:15:00,25.4,23.1,30.53,NW,316,3.0,11.0,91,0.00,,,0.00,Wunderground v.1.15,2013-03-09 01:15:00,
2013-03-08 20:20:00,25.2,22.9,30.53,NW,312,2.0,2.0,91,0.00,,,0.00,Wunderground v.1.15,2013-03-09 01:20:00,
2013-03-08 20:25:00,25.1,22.8,30.53,NW,317,3.0,5.0,91,0.00,,,0.00,Wunderground v.1.15,2013-03-09 01:25:00,
2013-03-08 20:30:00,24.8,22.5,30.52,NW,317,3.0,3.0,91,0.00,,,0.00,Wunderground v.1.15,2013-03-09 01:30:00,
2013-03-08 20:40:00,24.6,22.3,30.52,NW,318,3.0,11.0,91,0.00,,,0.00,Wunderground v.1.15,2013-03-09 01:40:00,
2013-03-08 20:45:00,24.4,22.2,30.53,NW,317,3.0,11.0,91,0.00,,,0.00,Wunderground v.1.15,2013-03-09 01:45:00,
2013-03-08 20:50:00,24.4,22.2,30.53,WNW,286,2.0,2.0,91,0.00,,,0.00,Wunderground v.1.15,2013-03-09 01:50:00,
2013-03-08 20:55:00,24.4,22.2,30.53,West,263,2.0,7.0,91,0.00,,,0.00,Wunderground v.1.15,2013-03-09 01:55:00,
2013-03-08 21:00:00,24.5,22.2,30.53,WNW,294,3.0,3.0,91,0.00,,,0.00,Wunderground v.1.15,2013-03-09 02:00:00,
2013-03-08 21:05:00,24.4,22.2,30.53,WNW,302,2.0,11.0,91,0.00,,,0.00,Wunderground v.1.15,2013-03-09 02:05:00,
2013-03-08 21:15:00,24.2,21.7,30.52,NW,304,2.0,11.0,90,0.00,,,0.00,Wunderground v.1.15,2013-03-09 02:15:00,
2013-03-08 21:25:00,23.8,21.6,30.52,WSW,240,1.0,3.0,91,0.00,,,0.00,Wunderground v.1.15,2013-03-09 02:25:00,
2013-03-08 21:30:00,23.9,21.7,30.52,WNW,299,2.0,11.0,91,0.00,,,0.00,Wunderground v.1.15,2013-03-09 02:30:00,
2013-03-08 21:35:00,24.0,21.8,30.52,NNW,331,3.0,11.0,91,0.00,,,0.00,Wunderground v.1.15,2013-03-09 02:35:00,
2013-03-08 21:40:00,24.2,22.0,30.52,West,279,3.0,11.0,91,0.00,,,0.00,Wunderground v.1.15,2013-03-09 02:40:00,
2013-03-08 21:45:00,24.3,22.1,30.51,NW,306,3.0,11.0,91,0.00,,,0.00,Wunderground v.1.15,2013-03-09 02:45:00,
2013-03-08 21:50:00,24.4,22.2,30.51,WNW,303,5.0,5.0,91,0.00,,,0.00,Wunderground v.1.15,2013-03-09 02:50:00,
2013-03-08 21:55:00,24.5,22.2,30.51,WNW,296,5.0,11.0,91,0.00,,,0.00,Wunderground v.1.15,2013-03-09 02:55:00,
2013-03-08 22:00:00,24.2,21.7,30.51,NW,318,2.0,2.0,90,0.00,,,0.00,Wunderground v.1.15,2013-03-09 03:00:00,
2013-03-08 22:05:00,23.9,21.4,30.51,West,273,1.0,11.0,90,0.00,,,0.00,Wunderground v.1.15,2013-03-09 03:05:00,
2013-03-08 22:10:00,23.8,21.6,30.51,West,273,0.0,11.0,91,0.00,,,0.00,Wunderground v.1.15,2013-03-09 03:10:00,
2013-03-08 22:15:00,23.8,21.6,30.51,WNW,286,1.0,11.0,91,0.00,,,0.00,Wunderground v.1.15,2013-03-09 03:15:00,
2013-03-08 22:25:00,23.2,20.7,30.51,West,259,1.0,11.0,90,0.00,,,0.00,Wunderground v.1.15,2013-03-09 03:25:00,
2013-03-08 22:30:00,23.0,21.0,30.51,SW,230,1.0,11.0,92,0.00,,,0.00,Wunderground v.1.15,2013-03-09 03:30:00,
2013-03-08 22:35:00,23.4,21.4,30.51,WNW,288,1.0,11.0,92,0.00,,,0.00,Wunderground v.1.15,2013-03-09 03:35:00,
2013-03-08 22:40:00,23.6,21.6,30.50,WNW,286,1.0,1.0,92,0.00,,,0.00,Wunderground v.1.15,2013-03-09 03:40:00,
2013-03-08 22:45:00,23.3,21.1,30.50,West,275,1.0,3.0,91,0.00,,,0.00,Wunderground v.1.15,2013-03-09 03:45:00,
2013-03-08 22:55:00,23.6,21.6,30.51,WNW,298,2.0,11.0,92,0.00,,,0.00,Wunderground v.1.15,2013-03-09 03:55:00,
2013-03-08 23:05:00,23.5,21.5,30.51,WNW,294,2.0,11.0,92,0.00,,,0.00,Wunderground v.1.15,2013-03-09 04:05:00,
2013-03-08 23:10:00,23.2,20.7,30.51,WNW,298,2.0,2.0,90,0.00,,,0.00,Wunderground v.1.15,2013-03-09 04:10:00,
2013-03-08 23:15:00,22.8,20.3,30.51,WNW,290,1.0,11.0,90,0.00,,,0.00,Wunderground v.1.15,2013-03-09 04:15:00,
2013-03-08 23:25:00,22.6,20.6,30.52,West,276,1.0,11.0,92,0.00,,,0.00,Wunderground v.1.15,2013-03-09 04:25:00,
2013-03-08 23:30:00,23.4,21.9,30.51,WNW,284,2.0,11.0,94,0.00,,,0.00,Wunderground v.1.15,2013-03-09 04:30:00,
2013-03-08 23:35:00,23.9,22.2,30.51,West,279,3.0,11.0,93,0.00,,,0.00,Wunderground v.1.15,2013-03-09 04:35:00,
2013-03-08 23:40:00,24.1,22.1,30.51,West,274,3.0,11.0,92,0.00,,,0.00,Wunderground v.1.15,2013-03-09 04:40:00,
2013-03-08 23:45:00,24.2,22.2,30.51,WNW,294,2.0,11.0,92,0.00,,,0.00,Wunderground v.1.15,2013-03-09 04:45:00,
2013-03-08 23:50:00,24.0,21.8,30.51,West,279,3.0,3.0,91,0.00,,,0.00,Wunderground v.1.15,2013-03-09 04:50:00,
2013-03-08 23:55:00,23.6,21.4,30.51,WSW,258,2.0,5.0,91,0.00,,,0.00,Wunderground v.1.15,2013-03-09 04:55:00,